ACA7097 KJFK-CYYZ
Flight info
| Callsign | ACA7097 |
|---|---|
| Flight time | 1h 8m |
| Altitude | 38000 |
| Route | GAYEL Q818 WOZEE LINNG3 |
| Aircraft | A320/M-SDE3FGHIRWY/LB1 |
Departure
| Time | 2026-05-04 02:20 |
|---|---|
| Airport | John F. Kennedy International Airport (KJFK) |
Arrival
| Time | 2026-05-04 03:28 |
|---|---|
| Airport | Toronto Pearson International Airport (CYYZ) |
| Time | Latitude | Longitude | Altitude | Speed | Heading |
|---|---|---|---|---|---|
| 2026-05-04 02:14 | 40.64019 | -73.77756 | 15 ft | 0 kts | 330° |
| 2026-05-04 02:15 | 40.64021 | -73.77759 | 15 ft | 1 kts | 298° |
| 2026-05-04 02:15 | 40.64000 | -73.77761 | 15 ft | 5 kts | 154° |
| 2026-05-04 02:16 | 40.63958 | -73.77734 | 15 ft | 7 kts | 155° |
| 2026-05-04 02:16 | 40.63924 | -73.77776 | 15 ft | 8 kts | 240° |
| 2026-05-04 02:16 | 40.63879 | -73.77780 | 15 ft | 9 kts | 144° |
| 2026-05-04 02:16 | 40.63818 | -73.77724 | 15 ft | 11 kts | 144° |
| 2026-05-04 02:17 | 40.63759 | -73.77648 | 15 ft | 12 kts | 159° |
| 2026-05-04 02:17 | 40.63672 | -73.77640 | 15 ft | 13 kts | 144° |
| 2026-05-04 02:17 | 40.63611 | -73.77540 | 15 ft | 15 kts | 119° |
| 2026-05-04 02:17 | 40.63555 | -73.77415 | 15 ft | 16 kts | 121° |
| 2026-05-04 02:18 | 40.63492 | -73.77282 | 15 ft | 17 kts | 123° |
| 2026-05-04 02:18 | 40.63424 | -73.77135 | 14 ft | 19 kts | 120° |
| 2026-05-04 02:18 | 40.63352 | -73.76974 | 12 ft | 20 kts | 130° |
| 2026-05-04 02:18 | 40.63213 | -73.76948 | 12 ft | 21 kts | 184° |
| 2026-05-04 02:19 | 40.63068 | -73.76991 | 12 ft | 21 kts | 207° |
| 2026-05-04 02:19 | 40.62940 | -73.77094 | 12 ft | 21 kts | 210° |
| 2026-05-04 02:19 | 40.62826 | -73.77181 | 12 ft | 10 kts | 211° |
| 2026-05-04 02:19 | 40.62816 | -73.77212 | 12 ft | 5 kts | 302° |
| 2026-05-04 02:20 | 40.62963 | -73.77531 | 12 ft | 86 kts | 299° |
| 2026-05-04 02:20 | 40.63413 | -73.78506 | 177 ft | 145 kts | 300° |
| 2026-05-04 02:20 | 40.63882 | -73.79520 | 1221 ft | 128 kts | 296° |
| 2026-05-04 02:20 | 40.64273 | -73.80471 | 2094 ft | 122 kts | 294° |
| 2026-05-04 02:21 | 40.64658 | -73.81503 | 2727 ft | 131 kts | 287° |
| 2026-05-04 02:21 | 40.64634 | -73.82683 | 3376 ft | 144 kts | 249° |
| 2026-05-04 02:21 | 40.64021 | -73.83796 | 3954 ft | 162 kts | 240° |
| 2026-05-04 02:21 | 40.63376 | -73.85085 | 4537 ft | 180 kts | 244° |
| 2026-05-04 02:22 | 40.62666 | -73.86568 | 5158 ft | 202 kts | 243° |
| 2026-05-04 02:22 | 40.61872 | -73.88184 | 5872 ft | 221 kts | 242° |
| 2026-05-04 02:22 | 40.60730 | -73.89676 | 6558 ft | 252 kts | 216° |
| 2026-05-04 02:22 | 40.58968 | -73.90375 | 7259 ft | 284 kts | 188° |
| 2026-05-04 02:23 | 40.56935 | -73.89916 | 8158 ft | 306 kts | 160° |
| 2026-05-04 02:23 | 40.55197 | -73.88351 | 9174 ft | 315 kts | 134° |
| 2026-05-04 02:23 | 40.53794 | -73.86110 | 10241 ft | 320 kts | 127° |
| 2026-05-04 02:23 | 40.52396 | -73.83773 | 11069 ft | 334 kts | 127° |
| 2026-05-04 02:24 | 40.50933 | -73.81303 | 11834 ft | 348 kts | 127° |
| 2026-05-04 02:24 | 40.49451 | -73.78786 | 12782 ft | 354 kts | 127° |
| 2026-05-04 02:24 | 40.47974 | -73.76181 | 13766 ft | 359 kts | 121° |
| 2026-05-04 02:24 | 40.47035 | -73.73184 | 14705 ft | 361 kts | 99° |
| 2026-05-04 02:25 | 40.46968 | -73.69915 | 15600 ft | 359 kts | 77° |
| 2026-05-04 02:25 | 40.47784 | -73.66859 | 16417 ft | 353 kts | 54° |
| 2026-05-04 02:25 | 40.49272 | -73.64497 | 17260 ft | 347 kts | 37° |
| 2026-05-04 02:25 | 40.51115 | -73.62418 | 18062 ft | 351 kts | 33° |
| 2026-05-04 02:26 | 40.53037 | -73.60382 | 18817 ft | 356 kts | 32° |
| 2026-05-04 02:26 | 40.54992 | -73.58329 | 19615 ft | 360 kts | 32° |
| 2026-05-04 02:26 | 40.56975 | -73.56245 | 20406 ft | 365 kts | 32° |
| 2026-05-04 02:26 | 40.59062 | -73.54479 | 21118 ft | 359 kts | 16° |
| 2026-05-04 02:27 | 40.61431 | -73.53437 | 21888 ft | 357 kts | 8° |
| 2026-05-04 02:27 | 40.63848 | -73.52582 | 22615 ft | 361 kts | 7° |
| 2026-05-04 02:27 | 40.66278 | -73.51749 | 23328 ft | 365 kts | 7° |
| 2026-05-04 02:27 | 40.68771 | -73.50890 | 24032 ft | 369 kts | 7° |
| 2026-05-04 02:28 | 40.71252 | -73.50033 | 24675 ft | 373 kts | 6° |
| 2026-05-04 02:28 | 40.73787 | -73.49683 | 25266 ft | 361 kts | 346° |
| 2026-05-04 02:28 | 40.76109 | -73.50693 | 25874 ft | 348 kts | 324° |
| 2026-05-04 02:28 | 40.77982 | -73.52629 | 26449 ft | 344 kts | 311° |
| 2026-05-04 02:29 | 40.79669 | -73.54919 | 27003 ft | 348 kts | 310° |
| 2026-05-04 02:29 | 40.81356 | -73.57189 | 27506 ft | 352 kts | 311° |
| 2026-05-04 02:29 | 40.83122 | -73.59544 | 27890 ft | 360 kts | 311° |
| 2026-05-04 02:29 | 40.84903 | -73.61899 | 28350 ft | 364 kts | 311° |
| 2026-05-04 02:30 | 40.86703 | -73.64269 | 28847 ft | 368 kts | 311° |
| 2026-05-04 02:30 | 40.88518 | -73.66657 | 29298 ft | 371 kts | 311° |
| 2026-05-04 02:30 | 40.90382 | -73.69104 | 29744 ft | 375 kts | 311° |
| 2026-05-04 02:30 | 40.92226 | -73.71523 | 30189 ft | 378 kts | 311° |
| 2026-05-04 02:31 | 40.94120 | -73.74008 | 30621 ft | 381 kts | 311° |
| 2026-05-04 02:31 | 40.96004 | -73.76485 | 31031 ft | 384 kts | 312° |
| 2026-05-04 02:31 | 40.97889 | -73.78962 | 31332 ft | 387 kts | 312° |
| 2026-05-04 02:31 | 40.99821 | -73.81498 | 31603 ft | 390 kts | 311° |
| 2026-05-04 02:32 | 41.01738 | -73.84018 | 31866 ft | 392 kts | 311° |
| 2026-05-04 02:32 | 41.03689 | -73.86585 | 32130 ft | 395 kts | 311° |
| 2026-05-04 02:32 | 41.05647 | -73.89165 | 32378 ft | 398 kts | 311° |
| 2026-05-04 02:32 | 41.07623 | -73.91772 | 32614 ft | 400 kts | 311° |
| 2026-05-04 02:33 | 41.09615 | -73.94403 | 32842 ft | 403 kts | 311° |
| 2026-05-04 02:33 | 41.11628 | -73.97064 | 33064 ft | 406 kts | 311° |
| 2026-05-04 02:33 | 41.13633 | -73.99717 | 33267 ft | 408 kts | 311° |
| 2026-05-04 02:33 | 41.15651 | -74.02389 | 33502 ft | 410 kts | 310° |
| 2026-05-04 02:34 | 41.17677 | -74.05074 | 33796 ft | 410 kts | 310° |
| 2026-05-04 02:34 | 41.19707 | -74.07767 | 34129 ft | 411 kts | 310° |
| 2026-05-04 02:34 | 41.21719 | -74.10438 | 34453 ft | 410 kts | 310° |
| 2026-05-04 02:34 | 41.23732 | -74.13114 | 34796 ft | 410 kts | 310° |
| 2026-05-04 02:35 | 41.25745 | -74.15791 | 35110 ft | 410 kts | 310° |
| 2026-05-04 02:35 | 41.27760 | -74.18477 | 35416 ft | 410 kts | 310° |
| 2026-05-04 02:35 | 41.29765 | -74.21151 | 35727 ft | 409 kts | 310° |
| 2026-05-04 02:35 | 41.31788 | -74.23850 | 36015 ft | 409 kts | 310° |
| 2026-05-04 02:36 | 41.33802 | -74.26542 | 36261 ft | 410 kts | 310° |
| 2026-05-04 02:36 | 41.35812 | -74.29231 | 36456 ft | 412 kts | 310° |
| 2026-05-04 02:36 | 41.37760 | -74.32014 | 36646 ft | 412 kts | 307° |
| 2026-05-04 02:36 | 41.39619 | -74.34964 | 36838 ft | 412 kts | 304° |
| 2026-05-04 02:37 | 41.41345 | -74.38016 | 37021 ft | 412 kts | 301° |
| 2026-05-04 02:37 | 41.42937 | -74.41156 | 37200 ft | 412 kts | 299° |
| 2026-05-04 02:37 | 41.44426 | -74.44431 | 37366 ft | 412 kts | 297° |
| 2026-05-04 02:37 | 41.45880 | -74.47765 | 37533 ft | 414 kts | 297° |
| 2026-05-04 02:38 | 41.47314 | -74.51073 | 37688 ft | 415 kts | 297° |
| 2026-05-04 02:38 | 41.48778 | -74.54458 | 37842 ft | 416 kts | 297° |
| 2026-05-04 02:38 | 41.51676 | -74.61163 | 37945 ft | 419 kts | 297° |
| 2026-05-04 02:39 | 41.54587 | -74.67921 | 37955 ft | 420 kts | 296° |
| 2026-05-04 02:39 | 41.57490 | -74.74679 | 37955 ft | 420 kts | 296° |
| 2026-05-04 02:40 | 41.60384 | -74.81427 | 37957 ft | 420 kts | 296° |
| 2026-05-04 02:40 | 41.63285 | -74.88203 | 37959 ft | 420 kts | 296° |
| 2026-05-04 02:41 | 41.66194 | -74.95016 | 37957 ft | 419 kts | 296° |
| 2026-05-04 02:41 | 41.69073 | -75.01778 | 37961 ft | 419 kts | 296° |
| 2026-05-04 02:42 | 41.71961 | -75.08581 | 37953 ft | 418 kts | 296° |
| 2026-05-04 02:42 | 41.74827 | -75.15344 | 37956 ft | 418 kts | 296° |
| 2026-05-04 02:43 | 41.77701 | -75.22142 | 37951 ft | 419 kts | 296° |
| 2026-05-04 02:43 | 41.80555 | -75.28909 | 37948 ft | 419 kts | 296° |
| 2026-05-04 02:44 | 41.83431 | -75.35744 | 37944 ft | 419 kts | 296° |
| 2026-05-04 02:44 | 41.86277 | -75.42526 | 37943 ft | 419 kts | 296° |
| 2026-05-04 02:45 | 41.89135 | -75.49353 | 37945 ft | 419 kts | 296° |
| 2026-05-04 02:45 | 41.92000 | -75.56214 | 37940 ft | 420 kts | 297° |
| 2026-05-04 02:46 | 41.94866 | -75.63085 | 37944 ft | 420 kts | 297° |
| 2026-05-04 02:46 | 41.97740 | -75.69987 | 37946 ft | 419 kts | 296° |
| 2026-05-04 02:47 | 42.00579 | -75.76820 | 37950 ft | 419 kts | 296° |
| 2026-05-04 02:47 | 42.03427 | -75.83699 | 37955 ft | 420 kts | 296° |
| 2026-05-04 02:48 | 42.06271 | -75.90590 | 37955 ft | 420 kts | 296° |
| 2026-05-04 02:48 | 42.09107 | -75.97474 | 37974 ft | 421 kts | 296° |
| 2026-05-04 02:49 | 42.11926 | -76.04336 | 37981 ft | 421 kts | 296° |
| 2026-05-04 02:49 | 42.14748 | -76.11231 | 37962 ft | 420 kts | 295° |
| 2026-05-04 02:50 | 42.17253 | -76.18333 | 37952 ft | 419 kts | 291° |
| 2026-05-04 02:50 | 42.19587 | -76.25580 | 37940 ft | 420 kts | 291° |
| 2026-05-04 02:51 | 42.21888 | -76.32769 | 37938 ft | 421 kts | 291° |
| 2026-05-04 02:51 | 42.24222 | -76.40071 | 37935 ft | 421 kts | 291° |
| 2026-05-04 02:52 | 42.26536 | -76.47334 | 37933 ft | 421 kts | 291° |
| 2026-05-04 02:52 | 42.28857 | -76.54637 | 37937 ft | 421 kts | 291° |
| 2026-05-04 02:53 | 42.31165 | -76.61916 | 37930 ft | 420 kts | 291° |
| 2026-05-04 02:53 | 42.33456 | -76.69164 | 37934 ft | 421 kts | 291° |
| 2026-05-04 02:54 | 42.35762 | -76.76473 | 37933 ft | 420 kts | 290° |
| 2026-05-04 02:54 | 42.38049 | -76.83753 | 37923 ft | 421 kts | 291° |
| 2026-05-04 02:55 | 42.41459 | -76.94638 | 37925 ft | 421 kts | 291° |
| 2026-05-04 02:56 | 42.43737 | -77.01939 | 37923 ft | 422 kts | 291° |
| 2026-05-04 02:56 | 42.46023 | -77.09280 | 37926 ft | 422 kts | 291° |
| 2026-05-04 02:57 | 42.48307 | -77.16629 | 37927 ft | 423 kts | 291° |
| 2026-05-04 02:57 | 42.50582 | -77.23981 | 37927 ft | 423 kts | 291° |
| 2026-05-04 02:58 | 42.52856 | -77.31355 | 37916 ft | 423 kts | 291° |
| 2026-05-04 02:58 | 42.55119 | -77.38712 | 37914 ft | 423 kts | 291° |
| 2026-05-04 02:59 | 42.57379 | -77.46075 | 37921 ft | 422 kts | 291° |
| 2026-05-04 02:59 | 42.59619 | -77.53394 | 37926 ft | 421 kts | 291° |
| 2026-05-04 03:00 | 42.61858 | -77.60735 | 37923 ft | 421 kts | 291° |
| 2026-05-04 03:00 | 42.64113 | -77.68150 | 37930 ft | 420 kts | 290° |
| 2026-05-04 03:01 | 42.66338 | -77.75509 | 37926 ft | 420 kts | 290° |
| 2026-05-04 03:01 | 42.68430 | -77.82934 | 37919 ft | 420 kts | 289° |
| 2026-05-04 03:02 | 42.70510 | -77.90437 | 37912 ft | 421 kts | 289° |
| 2026-05-04 03:02 | 42.72592 | -77.97944 | 37905 ft | 420 kts | 289° |
| 2026-05-04 03:03 | 42.74671 | -78.05438 | 37906 ft | 420 kts | 289° |
| 2026-05-04 03:03 | 42.76720 | -78.12840 | 37636 ft | 414 kts | 289° |
| 2026-05-04 03:03 | 42.77735 | -78.16525 | 37063 ft | 416 kts | 289° |
| 2026-05-04 03:04 | 42.78757 | -78.20239 | 36388 ft | 418 kts | 289° |
| 2026-05-04 03:04 | 42.79792 | -78.24008 | 35800 ft | 418 kts | 290° |
| 2026-05-04 03:04 | 42.80811 | -78.27718 | 35252 ft | 417 kts | 290° |
| 2026-05-04 03:04 | 42.81829 | -78.31428 | 34656 ft | 417 kts | 290° |
| 2026-05-04 03:05 | 42.82844 | -78.35127 | 33951 ft | 418 kts | 290° |
| 2026-05-04 03:05 | 42.83871 | -78.38874 | 33179 ft | 419 kts | 290° |
| 2026-05-04 03:05 | 42.84873 | -78.42537 | 32364 ft | 412 kts | 290° |
| 2026-05-04 03:05 | 42.85860 | -78.46152 | 31068 ft | 404 kts | 290° |
| 2026-05-04 03:06 | 42.86811 | -78.49644 | 29504 ft | 398 kts | 290° |
| 2026-05-04 03:06 | 42.87756 | -78.53117 | 28215 ft | 387 kts | 290° |
| 2026-05-04 03:06 | 42.88670 | -78.56490 | 27754 ft | 373 kts | 290° |
| 2026-05-04 03:06 | 42.89550 | -78.59735 | 27343 ft | 366 kts | 290° |
| 2026-05-04 03:07 | 42.90430 | -78.62987 | 26868 ft | 362 kts | 290° |
| 2026-05-04 03:07 | 42.91293 | -78.66180 | 26382 ft | 359 kts | 290° |
| 2026-05-04 03:07 | 42.92155 | -78.69368 | 25882 ft | 356 kts | 290° |
| 2026-05-04 03:07 | 42.93150 | -78.72420 | 25365 ft | 353 kts | 296° |
| 2026-05-04 03:08 | 42.94392 | -78.75293 | 24842 ft | 351 kts | 302° |
| 2026-05-04 03:08 | 42.95836 | -78.77936 | 24323 ft | 349 kts | 306° |
| 2026-05-04 03:08 | 42.97362 | -78.80495 | 23805 ft | 346 kts | 307° |
| 2026-05-04 03:08 | 42.98892 | -78.83028 | 23274 ft | 343 kts | 307° |
| 2026-05-04 03:09 | 43.00386 | -78.85500 | 22736 ft | 340 kts | 307° |
| 2026-05-04 03:09 | 43.01894 | -78.88001 | 22200 ft | 337 kts | 307° |
| 2026-05-04 03:09 | 43.03358 | -78.90432 | 21670 ft | 334 kts | 307° |
| 2026-05-04 03:09 | 43.04832 | -78.92883 | 21145 ft | 331 kts | 307° |
| 2026-05-04 03:10 | 43.06273 | -78.95280 | 20637 ft | 328 kts | 307° |
| 2026-05-04 03:10 | 43.07710 | -78.97674 | 20129 ft | 326 kts | 307° |
| 2026-05-04 03:10 | 43.09145 | -79.00068 | 19616 ft | 323 kts | 307° |
| 2026-05-04 03:10 | 43.10556 | -79.02421 | 19127 ft | 320 kts | 307° |
| 2026-05-04 03:11 | 43.11961 | -79.04768 | 18633 ft | 318 kts | 307° |
| 2026-05-04 03:11 | 43.13361 | -79.07105 | 18144 ft | 316 kts | 307° |
| 2026-05-04 03:11 | 43.14740 | -79.09409 | 17660 ft | 314 kts | 307° |
| 2026-05-04 03:11 | 43.16124 | -79.11720 | 17160 ft | 313 kts | 307° |
| 2026-05-04 03:12 | 43.17502 | -79.14026 | 16657 ft | 312 kts | 307° |
| 2026-05-04 03:12 | 43.18874 | -79.16325 | 16158 ft | 311 kts | 307° |
| 2026-05-04 03:12 | 43.20253 | -79.18635 | 15654 ft | 310 kts | 307° |
| 2026-05-04 03:12 | 43.21608 | -79.20905 | 15161 ft | 309 kts | 307° |
| 2026-05-04 03:13 | 43.22966 | -79.23186 | 14665 ft | 308 kts | 307° |
| 2026-05-04 03:13 | 43.24316 | -79.25458 | 14179 ft | 307 kts | 307° |
| 2026-05-04 03:13 | 43.25633 | -79.27673 | 13701 ft | 305 kts | 307° |
| 2026-05-04 03:13 | 43.26892 | -79.29791 | 13278 ft | 302 kts | 306° |
| 2026-05-04 03:14 | 43.28246 | -79.32070 | 12778 ft | 301 kts | 306° |
| 2026-05-04 03:14 | 43.29639 | -79.34255 | 12293 ft | 301 kts | 313° |
| 2026-05-04 03:14 | 43.31265 | -79.36005 | 11817 ft | 304 kts | 323° |
| 2026-05-04 03:14 | 43.33123 | -79.37355 | 11450 ft | 299 kts | 330° |
| 2026-05-04 03:15 | 43.34999 | -79.38551 | 11265 ft | 286 kts | 330° |
| 2026-05-04 03:15 | 43.36759 | -79.39658 | 11077 ft | 275 kts | 330° |
| 2026-05-04 03:15 | 43.38497 | -79.40763 | 10680 ft | 273 kts | 330° |
| 2026-05-04 03:15 | 43.40225 | -79.41870 | 10288 ft | 270 kts | 330° |
| 2026-05-04 03:16 | 43.41928 | -79.42962 | 9904 ft | 268 kts | 329° |
| 2026-05-04 03:16 | 43.43625 | -79.44054 | 9505 ft | 266 kts | 329° |
| 2026-05-04 03:16 | 43.45281 | -79.45119 | 9136 ft | 264 kts | 329° |
| 2026-05-04 03:16 | 43.46940 | -79.46188 | 8758 ft | 261 kts | 329° |
| 2026-05-04 03:17 | 43.48594 | -79.47255 | 8435 ft | 257 kts | 329° |
| 2026-05-04 03:17 | 43.50176 | -79.48271 | 8304 ft | 245 kts | 328° |
| 2026-05-04 03:17 | 43.51701 | -79.49249 | 8187 ft | 233 kts | 328° |
| 2026-05-04 03:17 | 43.53127 | -79.50167 | 8086 ft | 222 kts | 328° |
| 2026-05-04 03:18 | 43.54503 | -79.51055 | 7991 ft | 212 kts | 327° |
| 2026-05-04 03:18 | 43.55873 | -79.51945 | 7998 ft | 219 kts | 327° |
| 2026-05-04 03:18 | 43.57263 | -79.52844 | 7992 ft | 220 kts | 328° |
| 2026-05-04 03:18 | 43.58722 | -79.53585 | 7967 ft | 230 kts | 346° |
| 2026-05-04 03:19 | 43.60348 | -79.53230 | 7672 ft | 251 kts | 21° |
| 2026-05-04 03:19 | 43.61714 | -79.51656 | 7370 ft | 259 kts | 43° |
| 2026-05-04 03:19 | 43.62918 | -79.49828 | 7067 ft | 259 kts | 43° |
| 2026-05-04 03:19 | 43.64127 | -79.47980 | 6775 ft | 257 kts | 43° |
| 2026-05-04 03:20 | 43.65334 | -79.46165 | 6496 ft | 256 kts | 43° |
| 2026-05-04 03:20 | 43.66534 | -79.44388 | 6241 ft | 254 kts | 42° |
| 2026-05-04 03:20 | 43.67743 | -79.42609 | 5966 ft | 253 kts | 42° |
| 2026-05-04 03:20 | 43.68950 | -79.40844 | 5687 ft | 252 kts | 42° |
| 2026-05-04 03:21 | 43.70167 | -79.39068 | 5418 ft | 250 kts | 41° |
| 2026-05-04 03:21 | 43.71357 | -79.37328 | 5154 ft | 248 kts | 42° |
| 2026-05-04 03:21 | 43.72532 | -79.35609 | 4896 ft | 247 kts | 42° |
| 2026-05-04 03:21 | 43.73804 | -79.34038 | 4603 ft | 240 kts | 20° |
| 2026-05-04 03:22 | 43.75332 | -79.33678 | 4332 ft | 213 kts | 338° |
| 2026-05-04 03:22 | 43.76573 | -79.34565 | 4072 ft | 193 kts | 307° |
| 2026-05-04 03:22 | 43.77262 | -79.36046 | 3825 ft | 180 kts | 282° |
| 2026-05-04 03:22 | 43.77554 | -79.37712 | 3595 ft | 177 kts | 278° |
| 2026-05-04 03:23 | 43.77826 | -79.39368 | 3353 ft | 176 kts | 278° |
| 2026-05-04 03:23 | 43.78109 | -79.41039 | 3113 ft | 176 kts | 278° |
| 2026-05-04 03:23 | 43.78281 | -79.42703 | 2994 ft | 168 kts | 259° |
| 2026-05-04 03:23 | 43.77867 | -79.44146 | 2995 ft | 160 kts | 241° |
| 2026-05-04 03:24 | 43.77207 | -79.45414 | 2995 ft | 161 kts | 235° |
| 2026-05-04 03:24 | 43.76500 | -79.46592 | 2995 ft | 161 kts | 233° |
| 2026-05-04 03:24 | 43.75746 | -79.47763 | 2879 ft | 162 kts | 232° |
| 2026-05-04 03:24 | 43.74972 | -79.48914 | 2660 ft | 163 kts | 231° |
| 2026-05-04 03:25 | 43.74191 | -79.50051 | 2467 ft | 161 kts | 230° |
| 2026-05-04 03:25 | 43.73465 | -79.51099 | 2327 ft | 142 kts | 230° |
| 2026-05-04 03:25 | 43.72817 | -79.52034 | 2099 ft | 126 kts | 230° |
| 2026-05-04 03:25 | 43.72248 | -79.52860 | 1897 ft | 115 kts | 230° |
| 2026-05-04 03:26 | 43.71697 | -79.53664 | 1737 ft | 114 kts | 230° |
| 2026-05-04 03:26 | 43.71150 | -79.54459 | 1585 ft | 114 kts | 230° |
| 2026-05-04 03:26 | 43.70602 | -79.55255 | 1442 ft | 113 kts | 230° |
| 2026-05-04 03:26 | 43.70055 | -79.56049 | 1292 ft | 113 kts | 229° |
| 2026-05-04 03:27 | 43.69517 | -79.56832 | 1142 ft | 113 kts | 229° |
| 2026-05-04 03:27 | 43.68973 | -79.57619 | 988 ft | 112 kts | 228° |
| 2026-05-04 03:27 | 43.68440 | -79.58392 | 825 ft | 112 kts | 229° |
| 2026-05-04 03:27 | 43.67906 | -79.59177 | 663 ft | 111 kts | 227° |
| 2026-05-04 03:28 | 43.67380 | -79.59944 | 543 ft | 108 kts | 227° |
| 2026-05-04 03:28 | 43.66928 | -79.60603 | 544 ft | 71 kts | 227° |
| 2026-05-04 03:28 | 43.66743 | -79.60922 | 543 ft | 29 kts | 248° |
| 2026-05-04 03:28 | 43.66696 | -79.61121 | 544 ft | 13 kts | 252° |
| 2026-05-04 03:29 | 43.66690 | -79.61247 | 544 ft | 14 kts | 314° |
| 2026-05-04 03:29 | 43.66763 | -79.61343 | 545 ft | 14 kts | 315° |
| 2026-05-04 03:29 | 43.66830 | -79.61438 | 549 ft | 13 kts | 315° |
| 2026-05-04 03:29 | 43.66897 | -79.61510 | 551 ft | 11 kts | 7° |
| 2026-05-04 03:30 | 43.66964 | -79.61427 | 551 ft | 14 kts | 47° |
| 2026-05-04 03:30 | 43.67036 | -79.61321 | 551 ft | 15 kts | 47° |
| 2026-05-04 03:30 | 43.67111 | -79.61214 | 553 ft | 15 kts | 46° |
| 2026-05-04 03:30 | 43.67189 | -79.61101 | 554 ft | 12 kts | 46° |
| 2026-05-04 03:31 | 43.67242 | -79.61028 | 555 ft | 11 kts | 46° |
| 2026-05-04 03:31 | 43.67301 | -79.60944 | 556 ft | 12 kts | 46° |
| 2026-05-04 03:31 | 43.67365 | -79.60853 | 557 ft | 13 kts | 46° |
| 2026-05-04 03:31 | 43.67444 | -79.60823 | 558 ft | 13 kts | 324° |
| 2026-05-04 03:32 | 43.67511 | -79.60912 | 560 ft | 13 kts | 302° |
| 2026-05-04 03:32 | 43.67559 | -79.60985 | 561 ft | 6 kts | 330° |
| 2026-05-04 03:32 | 43.67599 | -79.61015 | 562 ft | 5 kts | 331° |
| 2026-05-04 03:32 | 43.67611 | -79.61025 | 562 ft | 0 kts | 330° |